Time;durP1;ratioP1;P1;durP2;ratioP2;P2;SDS_P1;SDS_P2;PMS_P1;PMS_P2;Temp;Humidity;BMP_temperature;BMP_pressure;BME280_temperature;BME280_humidity;BME280_pressure;Samples;Min_cycle;Max_cycle;Signal;HPM_P1;HPM_P2
2023/09/29 00:01:33;;;;;;;6.83;4.87;;;18.40;99.90;;;;;;4975320;28;20469;-80
2023/09/29 00:04:00;;;;;;;6.77;4.70;;;18.50;99.90;;;;;;4975267;28;21001;-79
2023/09/29 00:06:27;;;;;;;8.00;4.50;;;18.50;99.90;;;;;;4975875;28;20454;-79
2023/09/29 00:08:54;;;;;;;5.17;4.00;;;18.50;99.90;;;;;;4975697;28;20467;-79
2023/09/29 00:11:21;;;;;;;4.37;3.83;;;18.50;99.90;;;;;;4975380;28;20930;-79
2023/09/29 00:13:49;;;;;;;9.80;4.40;;;18.50;99.90;;;;;;4976160;28;20456;-79
2023/09/29 00:16:16;;;;;;;6.70;3.93;;;18.60;99.90;;;;;;4978703;28;20452;-78
2023/09/29 00:18:43;;;;;;;6.60;4.10;;;18.60;99.90;;;;;;4978821;28;20473;-79
2023/09/29 00:21:11;;;;;;;4.50;3.40;;;18.60;99.90;;;;;;4979541;28;20495;-79
2023/09/29 00:23:37;;;;;;;5.00;4.30;;;18.60;99.90;;;;;;4978814;28;20498;-79
2023/09/29 00:26:05;;;;;;;6.50;4.80;;;18.60;99.90;;;;;;4979724;28;20463;-79
2023/09/29 00:28:32;;;;;;;5.07;4.53;;;18.60;99.90;;;;;;4976459;28;20523;-78
2023/09/29 00:31:02;;;;;;;9.27;3.80;;;18.60;99.90;;;;;;4974519;28;21027;-78
2023/09/29 00:33:29;;;;;;;5.63;4.13;;;18.60;99.90;;;;;;4973859;28;20486;-79
2023/09/29 00:35:56;;;;;;;6.80;4.07;;;18.60;99.90;;;;;;4974342;28;20471;-79
2023/09/29 00:38:24;;;;;;;5.63;3.90;;;18.60;99.90;;;;;;4973636;28;20467;-78
2023/09/29 00:40:51;;;;;;;5.57;4.40;;;18.60;99.90;;;;;;4973980;28;20475;-78
2023/09/29 00:43:18;;;;;;;8.50;3.70;;;18.60;99.90;;;;;;4974046;28;20557;-79
2023/09/29 00:45:47;;;;;;;5.80;3.33;;;18.60;99.90;;;;;;4974579;28;20455;-78
2023/09/29 00:48:17;;;;;;;5.70;4.13;;;18.60;99.90;;;;;;4974354;28;20687;-79
2023/09/29 00:50:45;;;;;;;7.20;4.23;;;18.60;99.90;;;;;;4973492;28;20491;-79
2023/09/29 00:53:16;;;;;;;4.10;3.70;;;18.60;99.90;;;;;;4973192;28;20465;-78
2023/09/29 00:55:45;;;;;;;6.47;4.20;;;18.60;99.90;;;;;;4973511;28;20470;-78
2023/09/29 00:58:14;;;;;;;6.30;3.37;;;18.50;99.90;;;;;;4974192;28;21008;-79
2023/09/29 01:00:41;;;;;;;7.70;4.53;;;18.50;99.90;;;;;;4973495;28;20901;-78
2023/09/29 01:03:10;;;;;;;4.40;3.47;;;18.50;99.90;;;;;;4971439;28;20539;-79
2023/09/29 01:05:42;;;;;;;4.30;3.83;;;18.50;99.90;;;;;;4975024;28;20513;-78
2023/09/29 01:08:12;;;;;;;6.53;3.60;;;18.50;99.90;;;;;;4976575;28;20948;-77
2023/09/29 01:10:40;;;;;;;4.33;3.63;;;18.50;99.90;;;;;;4977083;28;20498;-77
2023/09/29 01:13:07;;;;;;;5.33;4.23;;;18.50;99.90;;;;;;4976824;28;20460;-77
2023/09/29 01:15:34;;;;;;;6.70;3.43;;;18.50;99.90;;;;;;4976839;28;20467;-79
2023/09/29 01:18:02;;;;;;;10.20;3.80;;;18.40;99.90;;;;;;4976889;28;20529;-78
2023/09/29 01:20:30;;;;;;;6.10;3.97;;;18.40;99.90;;;;;;4976823;28;20490;-77
2023/09/29 01:23:00;;;;;;;3.43;2.63;;;18.40;99.90;;;;;;4969271;28;20459;-76
2023/09/29 01:25:28;;;;;;;4.50;3.40;;;18.50;99.90;;;;;;4977132;28;20465;-78
2023/09/29 01:27:56;;;;;;;5.33;3.10;;;18.50;99.90;;;;;;4976685;28;20490;-78
2023/09/29 01:30:25;;;;;;;7.17;3.40;;;18.50;99.90;;;;;;4977198;28;20479;-79
2023/09/29 01:32:56;;;;;;;5.10;3.90;;;18.50;99.90;;;;;;4976826;28;20455;-78
2023/09/29 01:35:24;;;;;;;4.13;3.17;;;18.50;99.90;;;;;;4976824;28;20467;-78
2023/09/29 01:37:53;;;;;;;5.53;4.27;;;18.50;99.90;;;;;;4976491;28;20455;-77
2023/09/29 01:40:21;;;;;;;5.77;3.57;;;18.50;99.90;;;;;;4976980;28;20837;-78
2023/09/29 01:42:50;;;;;;;5.27;3.20;;;18.50;99.90;;;;;;4976831;28;20965;-79
2023/09/29 01:45:18;;;;;;;5.10;3.07;;;18.50;99.90;;;;;;4976674;28;20855;-78
2023/09/29 01:47:46;;;;;;;5.23;3.97;;;18.50;99.90;;;;;;4976527;28;21005;-79
2023/09/29 01:50:14;;;;;;;6.60;3.20;;;18.50;99.90;;;;;;4975829;28;20483;-78
2023/09/29 01:52:42;;;;;;;4.33;3.10;;;18.50;99.90;;;;;;4976955;28;20494;-78
2023/09/29 01:55:16;;;;;;;4.93;3.30;;;18.50;99.90;;;;;;4976734;28;20454;-78
2023/09/29 01:57:42;;;;;;;4.10;3.50;;;18.50;99.90;;;;;;4976399;28;20510;-77
2023/09/29 02:00:14;;;;;;;4.40;3.53;;;18.50;99.90;;;;;;4976934;28;20485;-78
2023/09/29 02:02:43;;;;;;;8.00;3.20;;;18.50;99.90;;;;;;4976521;28;20977;-79
2023/09/29 02:05:11;;;;;;;5.67;3.03;;;18.50;99.90;;;;;;4976506;28;20502;-80
2023/09/29 02:07:37;;;;;;;3.97;2.90;;;18.60;99.90;;;;;;4976432;28;20620;-78
2023/09/29 02:10:07;;;;;;;5.07;3.10;;;18.60;99.90;;;;;;4977418;28;20486;-81
2023/09/29 02:12:34;;;;;;;5.20;3.40;;;18.60;99.90;;;;;;4980415;28;20459;-79
2023/09/29 02:15:04;;;;;;;3.37;2.87;;;18.60;99.90;;;;;;4976404;28;20470;-78
2023/09/29 02:17:36;;;;;;;3.93;2.90;;;18.60;99.90;;;;;;4975979;28;20447;-79
2023/09/29 02:20:25;;;;;;;4.17;3.07;;;18.60;99.90;;;;;;4969531;28;20480;-79
2023/09/29 02:22:55;;;;;;;5.03;3.40;;;18.60;99.90;;;;;;4976477;28;20977;-79
2023/09/29 02:25:25;;;;;;;3.53;3.23;;;18.60;99.90;;;;;;4977302;28;20455;-79
2023/09/29 02:27:52;;;;;;;3.43;2.83;;;18.60;99.90;;;;;;4976240;28;20849;-79
2023/09/29 02:30:19;;;;;;;4.60;2.90;;;18.60;99.90;;;;;;4975279;28;20573;-78
2023/09/29 02:32:47;;;;;;;5.90;2.93;;;18.60;99.90;;;;;;4975077;28;20462;-78
2023/09/29 02:35:14;;;;;;;5.03;2.90;;;18.60;99.90;;;;;;4975185;28;20913;-78
2023/09/29 02:37:42;;;;;;;6.33;3.27;;;18.60;99.90;;;;;;4974824;28;20452;-78
2023/09/29 02:40:15;;;;;;;5.23;2.60;;;18.60;99.90;;;;;;4975439;28;20895;-78
2023/09/29 02:42:42;;;;;;;5.00;2.70;;;18.70;99.90;;;;;;4974680;28;20460;-78
2023/09/29 02:45:10;;;;;;;8.90;3.73;;;18.70;99.90;;;;;;4975203;28;20552;-78
2023/09/29 02:47:39;;;;;;;3.70;2.30;;;18.70;99.90;;;;;;4966930;28;21049;-78
2023/09/29 02:50:09;;;;;;;5.00;2.83;;;18.70;99.90;;;;;;4974856;28;20553;-78
2023/09/29 02:52:36;;;;;;;3.20;2.57;;;18.70;99.90;;;;;;4975160;28;20898;-78
2023/09/29 02:55:05;;;;;;;4.47;2.97;;;18.70;99.90;;;;;;4974693;28;20471;-77
2023/09/29 02:57:31;;;;;;;4.50;3.17;;;18.70;99.90;;;;;;4974594;28;20459;-80
2023/09/29 02:59:58;;;;;;;5.03;2.83;;;18.60;99.90;;;;;;4974776;28;20482;-78
2023/09/29 03:02:25;;;;;;;3.87;2.90;;;18.60;99.90;;;;;;4974579;28;20482;-77
2023/09/29 03:04:52;;;;;;;4.90;3.53;;;18.60;99.90;;;;;;4975016;28;20467;-78
2023/09/29 03:07:20;;;;;;;2.83;2.20;;;18.60;99.90;;;;;;4974831;28;20452;-78
2023/09/29 03:09:47;;;;;;;3.00;2.40;;;18.60;99.90;;;;;;4971383;28;21005;-78
2023/09/29 03:12:14;;;;;;;5.23;2.83;;;18.60;99.90;;;;;;4974667;28;20713;-78
2023/09/29 03:14:41;;;;;;;4.40;2.80;;;18.60;99.90;;;;;;4974735;28;20474;-77
2023/09/29 03:17:08;;;;;;;3.70;2.20;;;18.50;99.90;;;;;;4973996;28;20857;-77
2023/09/29 03:19:36;;;;;;;2.80;2.60;;;18.60;99.90;;;;;;4973965;28;20506;-78
2023/09/29 03:22:03;;;;;;;3.43;2.70;;;18.50;99.90;;;;;;4973937;28;20495;-78
2023/09/29 03:24:34;;;;;;;4.00;2.30;;;18.60;99.90;;;;;;4974928;28;20455;-77
2023/09/29 03:27:01;;;;;;;4.10;2.40;;;18.50;99.90;;;;;;4973232;28;20467;-78
2023/09/29 03:29:27;;;;;;;3.17;2.87;;;18.60;99.90;;;;;;4974027;28;20499;-78
2023/09/29 03:31:54;;;;;;;4.20;2.50;;;18.60;99.90;;;;;;4974120;28;20474;-77
2023/09/29 03:34:23;;;;;;;6.03;3.20;;;18.60;99.90;;;;;;4974279;28;20902;-77
2023/09/29 03:36:51;;;;;;;7.93;2.70;;;18.50;99.90;;;;;;4973728;28;20473;-77
2023/09/29 03:39:18;;;;;;;4.00;2.50;;;18.50;99.90;;;;;;4974197;28;20462;-77
2023/09/29 03:41:46;;;;;;;4.13;2.30;;;18.50;99.90;;;;;;4952260;28;20965;-78
2023/09/29 03:44:13;;;;;;;2.40;2.00;;;18.60;99.90;;;;;;4968942;28;20495;-78
2023/09/29 03:46:40;;;;;;;3.30;2.50;;;18.60;99.90;;;;;;4972128;28;20474;-77
2023/09/29 03:49:07;;;;;;;5.00;2.43;;;18.60;99.90;;;;;;4973610;28;20502;-78
2023/09/29 03:51:34;;;;;;;4.03;3.00;;;18.60;99.90;;;;;;4971552;28;20463;-78
2023/09/29 03:54:01;;;;;;;3.60;2.73;;;18.60;99.90;;;;;;4973328;28;20456;-77
2023/09/29 03:56:28;;;;;;;3.17;2.30;;;18.50;99.90;;;;;;4973959;28;20473;-78
2023/09/29 03:58:56;;;;;;;3.27;2.20;;;18.60;99.90;;;;;;4973402;28;20994;-77
2023/09/29 04:01:23;;;;;;;5.47;2.53;;;18.60;99.90;;;;;;4973393;28;20479;-78
2023/09/29 04:03:50;;;;;;;5.60;2.60;;;18.60;99.90;;;;;;4973441;28;20463;-78
2023/09/29 04:06:17;;;;;;;3.73;2.80;;;18.60;99.90;;;;;;4973844;28;20459;-78
2023/09/29 04:08:43;;;;;;;3.87;2.70;;;18.60;99.90;;;;;;4973659;28;20494;-80
2023/09/29 04:11:10;;;;;;;4.20;2.30;;;18.60;99.90;;;;;;4975235;28;20485;-80
2023/09/29 04:13:37;;;;;;;3.37;2.50;;;18.60;99.90;;;;;;4975190;28;20480;-79
2023/09/29 04:16:06;;;;;;;2.50;2.10;;;18.60;99.90;;;;;;4975868;28;20969;-79
2023/09/29 04:18:33;;;;;;;6.50;2.37;;;18.60;99.90;;;;;;4974597;28;20464;-81
2023/09/29 04:21:01;;;;;;;5.20;2.40;;;18.60;99.90;;;;;;4975462;28;20483;-80
2023/09/29 04:23:28;;;;;;;4.00;2.57;;;18.60;99.90;;;;;;4975355;28;21116;-80
2023/09/29 04:25:55;;;;;;;2.80;2.47;;;18.60;99.90;;;;;;4975121;28;20455;-80
2023/09/29 04:28:22;;;;;;;2.90;2.47;;;18.60;99.90;;;;;;4972105;28;20496;-80
2023/09/29 04:30:49;;;;;;;6.60;3.00;;;18.60;99.90;;;;;;4975466;28;20479;-78
2023/09/29 04:33:18;;;;;;;4.07;2.70;;;18.60;99.90;;;;;;4975121;28;20465;-80
2023/09/29 04:35:45;;;;;;;3.70;2.30;;;18.60;99.90;;;;;;4975120;28;20459;-79
2023/09/29 04:38:12;;;;;;;4.50;2.87;;;18.60;99.90;;;;;;4977202;28;20455;-80
2023/09/29 04:40:38;;;;;;;2.90;2.50;;;18.60;99.90;;;;;;4973283;28;20474;-81
2023/09/29 04:43:06;;;;;;;3.23;2.50;;;18.60;99.90;;;;;;4972412;28;20847;-80
2023/09/29 04:45:34;;;;;;;4.00;2.70;;;18.60;99.90;;;;;;4972495;28;20462;-79
2023/09/29 04:48:01;;;;;;;5.10;2.70;;;18.60;99.90;;;;;;4976531;28;20501;-78
2023/09/29 04:50:29;;;;;;;3.87;2.83;;;18.60;99.90;;;;;;4977882;28;20861;-78
2023/09/29 04:52:56;;;;;;;3.53;2.67;;;18.60;99.90;;;;;;4977930;28;20462;-79
2023/09/29 04:55:23;;;;;;;3.90;3.10;;;18.60;99.90;;;;;;4972397;28;20463;-79
2023/09/29 04:57:52;;;;;;;7.00;3.40;;;18.60;99.90;;;;;;4977043;28;20463;-80
2023/09/29 05:00:19;;;;;;;9.20;3.40;;;18.60;99.90;;;;;;4977340;28;20547;-79
2023/09/29 05:02:46;;;;;;;4.03;3.00;;;18.60;99.90;;;;;;4977543;28;20462;-78
2023/09/29 05:05:13;;;;;;;10.27;3.50;;;18.60;99.90;;;;;;4977413;28;20820;-79
2023/09/29 05:07:43;;;;;;;5.80;3.20;;;18.50;99.90;;;;;;4971990;28;20510;-80
2023/09/29 05:10:13;;;;;;;5.77;3.50;;;18.50;99.90;;;;;;4968494;28;20471;-80
2023/09/29 05:12:40;;;;;;;4.50;3.30;;;18.50;99.90;;;;;;4973640;28;20466;-80
2023/09/29 05:15:08;;;;;;;4.73;3.70;;;18.50;99.90;;;;;;4974914;28;21024;-79
2023/09/29 05:17:35;;;;;;;5.40;3.80;;;18.50;99.90;;;;;;4975216;28;20994;-80
2023/09/29 05:20:02;;;;;;;4.40;3.03;;;18.50;99.90;;;;;;4975832;28;20535;-81
2023/09/29 05:22:31;;;;;;;3.90;2.77;;;18.50;99.90;;;;;;4979226;28;20997;-81
2023/09/29 05:24:59;;;;;;;4.80;3.13;;;18.50;99.90;;;;;;4973341;28;20471;-81
2023/09/29 05:27:29;;;;;;;4.07;3.10;;;18.50;99.90;;;;;;4974201;28;20466;-81
2023/09/29 05:29:56;;;;;;;4.13;2.70;;;18.50;99.90;;;;;;4974948;28;20491;-81
2023/09/29 05:32:23;;;;;;;6.70;3.67;;;18.40;99.90;;;;;;4973357;28;21047;-78
2023/09/29 05:34:50;;;;;;;5.37;3.37;;;18.40;99.90;;;;;;4976258;28;20549;-79
2023/09/29 05:37:17;;;;;;;6.30;3.40;;;18.40;99.90;;;;;;4976159;28;20470;-79
2023/09/29 05:39:43;;;;;;;4.77;3.30;;;18.40;99.90;;;;;;4974585;28;21052;-79
2023/09/29 05:42:12;;;;;;;3.27;2.97;;;18.40;99.90;;;;;;4971312;28;20459;-80
2023/09/29 05:44:39;;;;;;;4.70;3.30;;;18.40;99.90;;;;;;4975441;28;21023;-80
2023/09/29 05:47:06;;;;;;;3.40;2.87;;;18.40;99.90;;;;;;4976735;28;20462;-79
2023/09/29 05:49:32;;;;;;;5.50;3.23;;;18.40;99.90;;;;;;4974674;28;20494;-80
2023/09/29 05:51:59;;;;;;;3.13;2.83;;;18.40;99.90;;;;;;4976584;28;20462;-80
2023/09/29 05:54:26;;;;;;;5.40;3.40;;;18.40;99.90;;;;;;4975101;28;20462;-79
2023/09/29 05:56:53;;;;;;;4.83;3.53;;;18.40;99.90;;;;;;4975733;28;20485;-81
2023/09/29 05:59:21;;;;;;;6.00;3.10;;;18.40;99.90;;;;;;4975109;28;20479;-80
2023/09/29 06:01:48;;;;;;;5.20;4.10;;;18.50;99.90;;;;;;4975260;28;20965;-80
2023/09/29 06:04:15;;;;;;;5.47;3.97;;;18.50;99.90;;;;;;4975910;28;20466;-81
2023/09/29 06:06:41;;;;;;;5.83;3.53;;;18.60;99.90;;;;;;4976095;28;20968;-80
2023/09/29 06:09:08;;;;;;;3.77;3.07;;;18.60;99.90;;;;;;4972780;28;20495;-80
2023/09/29 06:11:35;;;;;;;4.37;3.67;;;18.70;99.90;;;;;;4976358;28;20475;-80
2023/09/29 06:14:02;;;;;;;4.67;3.63;;;18.70;99.90;;;;;;4976019;28;20550;-80
2023/09/29 06:16:30;;;;;;;4.37;3.47;;;18.70;99.90;;;;;;4972103;28;20469;-81
2023/09/29 06:19:00;;;;;;;6.73;3.50;;;18.70;99.90;;;;;;4969231;28;20455;-80
2023/09/29 06:21:28;;;;;;;4.67;3.50;;;18.70;99.90;;;;;;4976970;28;21029;-80
2023/09/29 06:23:55;;;;;;;6.53;3.47;;;18.70;99.90;;;;;;4983978;28;20466;-81
2023/09/29 06:26:21;;;;;;;3.43;2.97;;;18.70;99.90;;;;;;4959065;28;20451;-81
2023/09/29 06:28:48;;;;;;;4.43;3.20;;;18.70;99.90;;;;;;4977290;28;20491;-81
2023/09/29 06:31:15;;;;;;;4.30;2.90;;;18.80;99.90;;;;;;4976006;28;20483;-82
2023/09/29 06:33:43;;;;;;;4.33;3.27;;;18.80;99.90;;;;;;4967628;28;20476;-81
2023/09/29 06:36:10;;;;;;;6.20;3.20;;;18.80;99.90;;;;;;4973683;28;20558;-81
2023/09/29 06:38:37;;;;;;;7.83;3.40;;;18.70;99.90;;;;;;4976334;28;20452;-80
2023/09/29 06:41:03;;;;;;;4.90;3.00;;;18.80;99.90;;;;;;4976316;28;20484;-80
2023/09/29 06:43:30;;;;;;;4.27;3.27;;;18.80;99.90;;;;;;4975591;28;20966;-80
2023/09/29 06:45:57;;;;;;;3.37;2.90;;;18.80;99.90;;;;;;4970644;28;20511;-80
2023/09/29 06:48:24;;;;;;;3.20;2.90;;;18.80;99.90;;;;;;4975817;28;20451;-80
2023/09/29 06:50:52;;;;;;;4.57;3.50;;;18.90;99.90;;;;;;4976811;28;20482;-81
2023/09/29 06:53:19;;;;;;;3.50;3.20;;;18.90;99.90;;;;;;4977988;28;20900;-82
2023/09/29 06:55:46;;;;;;;4.40;2.80;;;19.00;99.90;;;;;;4976812;28;20462;-80
2023/09/29 06:58:13;;;;;;;4.57;3.40;;;19.10;99.90;;;;;;4971796;28;20455;-80
2023/09/29 07:00:40;;;;;;;3.77;2.97;;;19.20;99.90;;;;;;4975775;28;20551;-81
2023/09/29 07:03:12;;;;;;;3.40;3.00;;;19.20;99.90;;;;;;4979331;28;20459;-82
2023/09/29 07:05:39;;;;;;;4.53;3.23;;;19.30;99.90;;;;;;4974383;28;20467;-81
2023/09/29 07:08:07;;;;;;;4.20;3.37;;;19.30;99.90;;;;;;4974925;28;20470;-82
2023/09/29 07:10:34;;;;;;;3.73;3.20;;;19.30;99.90;;;;;;4977517;28;20495;-80
2023/09/29 07:13:01;;;;;;;4.40;3.07;;;19.30;99.90;;;;;;4978151;28;20953;-85
2023/09/29 07:15:28;;;;;;;7.73;3.40;;;19.40;99.90;;;;;;4971219;28;20467;-79
2023/09/29 07:17:54;;;;;;;6.20;2.73;;;19.40;99.90;;;;;;4977516;28;20534;-80
2023/09/29 07:20:22;;;;;;;3.90;3.10;;;19.50;99.90;;;;;;4976787;28;20483;-80
2023/09/29 07:22:51;;;;;;;4.50;2.90;;;19.50;99.90;;;;;;4977141;28;20459;-81
2023/09/29 07:25:19;;;;;;;3.83;3.03;;;19.60;99.90;;;;;;4976854;28;20467;-80
2023/09/29 07:27:46;;;;;;;3.33;2.80;;;19.60;99.90;;;;;;4975235;28;20474;-80
2023/09/29 07:30:13;;;;;;;5.10;2.67;;;19.60;99.90;;;;;;4975743;28;20495;-80
2023/09/29 07:32:41;;;;;;;6.80;3.33;;;19.60;99.90;;;;;;4976606;28;20542;-82
2023/09/29 07:35:09;;;;;;;8.60;3.80;;;19.60;99.90;;;;;;4967400;28;20471;-80
2023/09/29 07:37:35;;;;;;;4.60;3.00;;;19.60;99.90;;;;;;4974724;28;20930;-81
2023/09/29 07:40:02;;;;;;;3.63;2.63;;;19.70;99.90;;;;;;4972924;28;21233;-82
2023/09/29 07:42:31;;;;;;;6.20;3.23;;;19.80;99.90;;;;;;4975250;28;20518;-81
2023/09/29 07:44:58;;;;;;;4.93;2.73;;;19.90;99.90;;;;;;4973853;28;20451;-82
2023/09/29 07:47:24;;;;;;;4.53;2.80;;;20.00;99.90;;;;;;4975811;28;20459;-83
2023/09/29 07:49:51;;;;;;;5.37;3.20;;;20.10;99.90;;;;;;4976016;28;20499;-81
2023/09/29 07:52:18;;;;;;;4.73;2.80;;;20.20;99.90;;;;;;4976569;28;20551;-81
2023/09/29 07:54:45;;;;;;;5.23;2.97;;;20.30;99.90;;;;;;4974162;28;20459;-81
2023/09/29 07:57:12;;;;;;;3.83;3.13;;;20.30;99.90;;;;;;4967694;28;20463;-81
2023/09/29 07:59:40;;;;;;;5.73;3.00;;;20.30;99.90;;;;;;4975394;28;20509;-82
2023/09/29 08:02:07;;;;;;;5.60;2.73;;;20.30;99.90;;;;;;4976803;28;20459;-81
2023/09/29 08:04:34;;;;;;;8.10;3.37;;;20.30;99.90;;;;;;4967471;28;20456;-82
2023/09/29 08:07:02;;;;;;;3.70;3.30;;;20.30;99.90;;;;;;4976065;28;20451;-81
2023/09/29 08:09:29;;;;;;;4.47;3.10;;;20.30;99.90;;;;;;4974393;28;21149;-82
2023/09/29 08:11:57;;;;;;;5.67;2.90;;;20.40;99.90;;;;;;4974219;28;20950;-81
2023/09/29 08:14:24;;;;;;;5.83;3.40;;;20.40;99.90;;;;;;4975570;28;20467;-82
2023/09/29 08:16:52;;;;;;;3.53;3.20;;;20.50;99.90;;;;;;4973281;28;20575;-81
2023/09/29 08:19:19;;;;;;;4.57;2.73;;;20.60;99.90;;;;;;4975367;28;20507;-83
2023/09/29 08:21:47;;;;;;;3.73;2.90;;;20.80;99.90;;;;;;4967915;28;20463;-81
2023/09/29 08:24:14;;;;;;;3.10;2.50;;;20.90;99.90;;;;;;4965180;28;21008;-82
2023/09/29 08:26:41;;;;;;;4.03;2.67;;;21.10;99.90;;;;;;4972188;28;20457;-83
2023/09/29 08:29:14;;;;;;;6.13;3.27;;;21.20;99.90;;;;;;4975927;28;20510;-82
2023/09/29 08:31:41;;;;;;;10.43;2.93;;;21.20;99.90;;;;;;4973514;28;20467;-81
2023/09/29 08:34:09;;;;;;;6.80;3.50;;;21.30;99.90;;;;;;4971357;28;21000;-81
2023/09/29 08:36:36;;;;;;;7.10;4.30;;;21.30;99.90;;;;;;4969296;28;20525;-80
2023/09/29 08:39:03;;;;;;;5.53;3.63;;;21.40;99.90;;;;;;4978927;28;20470;-81
2023/09/29 08:41:34;;;;;;;5.60;3.00;;;21.40;99.90;;;;;;4978169;28;20464;-81
2023/09/29 08:44:03;;;;;;;7.77;3.33;;;21.40;99.90;;;;;;4971635;28;20470;-81
2023/09/29 08:46:33;;;;;;;6.00;3.00;;;21.50;99.90;;;;;;4981147;28;20546;-81
2023/09/29 08:49:03;;;;;;;3.93;2.30;;;21.60;99.90;;;;;;4972674;28;20492;-80
2023/09/29 08:51:33;;;;;;;3.30;2.30;;;21.80;99.90;;;;;;4967894;28;20488;-81
2023/09/29 08:54:02;;;;;;;6.00;3.10;;;22.00;99.90;;;;;;4970088;28;20459;-79
2023/09/29 08:56:30;;;;;;;4.40;2.60;;;22.10;99.90;;;;;;4973663;28;20494;-81
2023/09/29 08:58:58;;;;;;;5.23;2.67;;;22.10;99.90;;;;;;4974603;28;20455;-81
2023/09/29 09:01:26;;;;;;;3.60;2.50;;;22.10;99.90;;;;;;4977296;28;20451;-82
2023/09/29 09:03:52;;;;;;;3.13;2.60;;;22.00;99.90;;;;;;4965612;28;20538;-81
2023/09/29 09:06:23;;;;;;;3.90;2.57;;;22.10;99.90;;;;;;4971479;28;20476;-81
2023/09/29 09:08:53;;;;;;;4.33;2.80;;;22.00;99.90;;;;;;4976101;28;20491;-81
2023/09/29 09:11:20;;;;;;;4.90;2.50;;;22.00;99.90;;;;;;4977937;28;20566;-81
2023/09/29 09:13:59;;;;;;;6.27;2.70;;;22.00;99.90;;;;;;4979915;28;20455;-82
2023/09/29 09:16:26;;;;;;;5.17;3.20;;;21.90;99.90;;;;;;4977834;28;20459;-81
2023/09/29 09:18:54;;;;;;;4.07;2.50;;;21.90;99.90;;;;;;4975967;28;20467;-81
2023/09/29 09:21:21;;;;;;;5.70;2.63;;;21.80;99.90;;;;;;4976654;28;20478;-80
2023/09/29 09:23:48;;;;;;;3.13;2.63;;;21.80;99.90;;;;;;4974926;28;21201;-81
2023/09/29 09:26:16;;;;;;;4.43;2.50;;;21.90;99.90;;;;;;4983160;28;20949;-81
2023/09/29 09:28:43;;;;;;;4.00;2.77;;;21.90;99.90;;;;;;4979106;28;20490;-82
2023/09/29 09:31:11;;;;;;;5.33;2.80;;;22.00;99.90;;;;;;4984749;28;20490;-81
2023/09/29 09:33:38;;;;;;;5.07;2.53;;;22.00;99.90;;;;;;4983597;28;20463;-82
2023/09/29 09:36:06;;;;;;;3.63;2.30;;;22.10;99.90;;;;;;4978747;28;20486;-82
2023/09/29 09:38:33;;;;;;;4.27;3.00;;;22.20;99.90;;;;;;4967026;28;20448;-83
2023/09/29 09:41:00;;;;;;;4.53;2.93;;;22.30;99.90;;;;;;4980001;28;20498;-83
2023/09/29 09:43:29;;;;;;;4.07;2.50;;;22.40;99.90;;;;;;4978947;28;20526;-81
2023/09/29 09:46:12;;;;;;;3.40;2.90;;;22.30;99.90;;;;;;4980816;28;20460;-80
2023/09/29 09:48:50;;;;;;;3.77;2.20;;;22.50;99.90;;;;;;4980954;28;20456;-80
2023/09/29 09:51:31;;;;;;;4.57;2.80;;;22.70;99.90;;;;;;4977995;28;20499;-81
2023/09/29 09:54:02;;;;;;;6.37;2.80;;;22.70;99.90;;;;;;4975901;28;20456;-81
2023/09/29 09:56:36;;;;;;;4.63;2.30;;;22.80;99.90;;;;;;4977899;28;21001;-82
2023/09/29 09:59:06;;;;;;;7.70;2.70;;;23.00;99.90;;;;;;4972980;28;20487;-81
2023/09/29 10:01:33;;;;;;;4.90;2.73;;;23.10;99.90;;;;;;4980930;28;20511;-82
2023/09/29 10:04:04;;;;;;;5.70;2.80;;;23.10;99.90;;;;;;4979486;28;20550;-79
2023/09/29 10:06:32;;;;;;;3.93;2.83;;;23.00;99.90;;;;;;4982614;28;20462;-81
2023/09/29 10:09:07;;;;;;;6.40;3.37;;;22.80;99.90;;;;;;4980519;28;20583;-83
2023/09/29 10:11:34;;;;;;;5.07;2.60;;;22.80;99.90;;;;;;4980878;28;20501;-81
2023/09/29 10:14:04;;;;;;;4.40;3.00;;;22.60;99.90;;;;;;4980254;28;20470;-81
2023/09/29 10:16:33;;;;;;;5.30;3.43;;;22.40;99.90;;;;;;4969938;28;20490;-81
2023/09/29 10:19:05;;;;;;;4.93;2.53;;;22.30;99.90;;;;;;4971424;28;20542;-83
2023/09/29 10:21:42;;;;;;;3.83;2.60;;;22.20;99.90;;;;;;4977991;28;20456;-82
2023/09/29 10:24:11;;;;;;;5.80;3.30;;;22.20;99.90;;;;;;4978015;28;20471;-81
2023/09/29 10:26:46;;;;;;;4.77;3.33;;;22.10;99.90;;;;;;4976869;28;20471;-82
2023/09/29 10:29:19;;;;;;;4.77;3.07;;;22.00;99.90;;;;;;4978110;28;20954;-82
2023/09/29 10:31:49;;;;;;;8.50;3.03;;;21.90;99.90;;;;;;4977333;28;20523;-82
2023/09/29 10:34:20;;;;;;;6.73;3.23;;;21.90;99.90;;;;;;4978568;28;20464;-82
2023/09/29 10:36:54;;;;;;;4.47;3.13;;;21.90;99.90;;;;;;4979497;28;20468;-81
2023/09/29 10:39:25;;;;;;;7.43;3.73;;;22.00;99.90;;;;;;4969529;28;20953;-83
2023/09/29 10:41:58;;;;;;;5.93;2.97;;;22.20;99.90;;;;;;4979064;28;21209;-82
2023/09/29 10:44:27;;;;;;;8.80;3.20;;;22.30;99.90;;;;;;4979739;28;20459;-82
2023/09/29 10:46:55;;;;;;;4.30;2.40;;;22.40;99.90;;;;;;4977407;28;20466;-81
2023/09/29 10:49:31;;;;;;;4.63;2.60;;;22.50;99.90;;;;;;4969736;28;20489;-82
2023/09/29 10:51:58;;;;;;;4.90;2.27;;;22.50;99.90;;;;;;4969343;28;20455;-82
2023/09/29 10:54:25;;;;;;;3.60;2.70;;;22.60;99.90;;;;;;4976228;28;20451;-81
2023/09/29 10:56:52;;;;;;;5.17;2.50;;;22.60;99.90;;;;;;4976862;28;20527;-82
2023/09/29 10:59:19;;;;;;;7.57;2.73;;;22.60;99.90;;;;;;4976586;28;20444;-80
2023/09/29 11:01:46;;;;;;;6.27;3.30;;;22.60;99.90;;;;;;4968539;28;20458;-82
2023/09/29 11:04:14;;;;;;;5.17;2.83;;;22.80;99.90;;;;;;4977241;28;20459;-82
2023/09/29 11:06:43;;;;;;;9.13;3.30;;;23.50;99.90;;;;;;4976721;28;20459;-80
2023/09/29 11:09:16;;;;;;;4.83;2.90;;;24.10;99.90;;;;;;4976956;28;20455;-82
2023/09/29 11:11:43;;;;;;;8.00;2.87;;;24.60;99.90;;;;;;4967825;28;20483;-83
2023/09/29 11:14:10;;;;;;;4.63;2.77;;;25.20;99.90;;;;;;4971123;28;20451;-81
2023/09/29 11:16:36;;;;;;;5.47;3.17;;;25.60;99.90;;;;;;4977226;28;20451;-83
2023/09/29 11:19:11;;;;;;;9.70;2.83;;;25.60;99.90;;;;;;4978135;28;20807;-84
2023/09/29 11:21:41;;;;;;;8.60;3.73;;;25.40;99.90;;;;;;4977524;28;20446;-82
2023/09/29 11:24:09;;;;;;;8.30;3.07;;;25.30;99.90;;;;;;4977105;28;20483;-81
2023/09/29 11:26:40;;;;;;;9.87;3.97;;;25.10;99.90;;;;;;4978676;28;20455;-83
2023/09/29 11:29:08;;;;;;;5.37;3.27;;;25.20;99.90;;;;;;4977866;28;20470;-83
2023/09/29 11:31:36;;;;;;;9.60;3.83;;;25.30;99.90;;;;;;4979193;28;20522;-82
2023/09/29 11:34:03;;;;;;;6.57;4.20;;;25.60;99.90;;;;;;4978478;28;20459;-84
2023/09/29 11:36:30;;;;;;;7.00;5.17;;;25.70;99.90;;;;;;4978970;28;20459;-84
2023/09/29 11:38:58;;;;;;;8.17;4.27;;;25.80;99.90;;;;;;4978815;28;20460;-83
2023/09/29 11:41:25;;;;;;;8.73;3.73;;;26.10;99.90;;;;;;4976688;28;20826;-83
2023/09/29 11:43:51;;;;;;;6.93;3.73;;;26.30;99.90;;;;;;4979034;28;20534;-84
2023/09/29 11:46:18;;;;;;;11.57;4.10;;;26.60;99.90;;;;;;4980448;28;20456;-84
2023/09/29 11:48:45;;;;;;;6.03;3.63;;;26.80;99.90;;;;;;4979965;28;20481;-82
2023/09/29 11:51:13;;;;;;;7.10;3.73;;;27.20;99.90;;;;;;4978863;28;20498;-83
2023/09/29 11:53:40;;;;;;;7.83;3.03;;;27.60;99.90;;;;;;4975314;28;20550;-83
2023/09/29 11:56:09;;;;;;;5.60;3.40;;;27.60;99.90;;;;;;4975947;28;20471;-83
2023/09/29 11:58:37;;;;;;;5.87;3.80;;;27.70;99.90;;;;;;4973100;28;20459;-82
2023/09/29 12:01:06;;;;;;;6.87;3.13;;;28.10;99.90;;;;;;4978239;28;20467;-82
2023/09/29 12:03:34;;;;;;;4.20;2.77;;;28.20;99.90;;;;;;4977268;28;20455;-81
2023/09/29 12:06:02;;;;;;;8.53;4.10;;;28.40;99.90;;;;;;4978957;28;20463;-82
2023/09/29 12:08:29;;;;;;;7.07;3.60;;;28.60;99.90;;;;;;4977361;28;20460;-82
2023/09/29 12:10:57;;;;;;;7.00;3.10;;;28.00;99.90;;;;;;4978128;28;20503;-82
2023/09/29 12:13:25;;;;;;;9.87;3.43;;;27.20;99.90;;;;;;4977982;28;20448;-82
2023/09/29 12:15:52;;;;;;;7.30;3.30;;;26.40;99.90;;;;;;4977075;28;20455;-81
2023/09/29 12:18:19;;;;;;;7.50;4.20;;;25.80;99.90;;;;;;4974788;28;20453;-80
2023/09/29 12:20:46;;;;;;;9.77;4.30;;;25.50;99.90;;;;;;4971907;28;21052;-80
2023/09/29 12:23:13;;;;;;;5.50;3.40;;;25.20;99.90;;;;;;4968502;28;20448;-81
2023/09/29 12:25:40;;;;;;;6.93;3.73;;;24.70;99.90;;;;;;4975031;28;20463;-83
2023/09/29 12:28:07;;;;;;;10.93;3.70;;;24.60;99.90;;;;;;4974052;28;20459;-83
2023/09/29 12:30:36;;;;;;;7.80;3.50;;;24.30;99.90;;;;;;4973366;28;20497;-81
2023/09/29 12:33:03;;;;;;;7.30;4.27;;;24.40;99.90;;;;;;4973902;28;20458;-82
2023/09/29 12:35:30;;;;;;;7.20;3.77;;;24.70;99.90;;;;;;4974347;28;20872;-82
2023/09/29 12:37:57;;;;;;;9.90;4.47;;;24.70;99.90;;;;;;4974177;28;20461;-81
2023/09/29 12:40:24;;;;;;;6.43;4.00;;;24.40;99.90;;;;;;4974463;28;20824;-84
2023/09/29 12:42:51;;;;;;;13.33;4.50;;;24.20;99.90;;;;;;4975347;28;20462;-81
2023/09/29 12:45:20;;;;;;;8.87;4.33;;;24.10;99.90;;;;;;4969716;28;20466;-82
2023/09/29 12:47:49;;;;;;;9.57;4.57;;;24.20;99.90;;;;;;4966283;28;20835;-83
2023/09/29 12:50:17;;;;;;;10.20;4.27;;;24.10;99.90;;;;;;4971295;28;20565;-80